Time;durP1;ratioP1;P1;durP2;ratioP2;P2;SDS_P1;SDS_P2;PMS_P1;PMS_P2;Temp;Humidity;BMP_temperature;BMP_pressure;BME280_temperature;BME280_humidity;BME280_pressure;Samples;Min_cycle;Max_cycle;Signal;HPM_P1;HPM_P2
2021/10/01 00:03:42;;;;;;;2.03;1.85;;;;;;;16.04;56.24;101700.63;10504630;28;20101;-76
2021/10/01 00:08:42;;;;;;;2.08;1.33;;;;;;;15.53;56.05;101597.59;10504462;28;20067;-76
2021/10/01 00:13:43;;;;;;;2.85;1.88;;;;;;;16.11;56.52;101677.94;10504736;28;20197;-76
2021/10/01 00:18:43;;;;;;;4.88;1.52;;;;;;;15.93;57.18;101682.19;10504719;28;20041;-76
2021/10/01 00:23:44;;;;;;;5.10;1.58;;;;;;;15.92;56.91;101690.59;10503247;28;20036;-77
2021/10/01 00:28:44;;;;;;;5.38;2.35;;;;;;;15.04;56.97;101529.88;10503416;28;20101;-76
2021/10/01 00:33:45;;;;;;;4.68;2.10;;;;;;;15.73;57.44;101654.06;10503375;28;20056;-75
2021/10/01 00:38:45;;;;;;;4.30;2.83;;;;;;;15.87;57.96;101687.66;10502397;28;20040;-76
2021/10/01 00:43:45;;;;;;;7.05;1.75;;;;;;;15.72;58.56;101646.94;10502746;28;20056;-76
2021/10/01 00:48:46;;;;;;;2.90;1.60;;;;;;;15.77;58.91;101699.88;10500720;28;20094;-76
2021/10/01 00:53:46;;;;;;;5.43;1.90;;;;;;;15.28;58.41;101596.56;10501508;28;20040;-77
2021/10/01 00:58:47;;;;;;;7.28;2.38;;;;;;;15.76;58.83;101653.63;10484775;28;20123;-76
2021/10/01 01:03:59;;;;;;;5.70;2.50;;;;;;;15.13;59.29;101462.31;10484476;28;20033;-76
2021/10/01 01:09:30;;;;;;;8.82;2.50;;;;;;;16.22;58.28;101656.25;10468604;28;20142;-76
2021/10/01 01:15:03;;;;;;;5.40;1.95;;;;;;;16.00;57.79;101647.50;10501881;28;20037;-75
2021/10/01 01:20:07;;;;;;;6.38;2.25;;;;;;;15.03;56.96;101462.75;10473990;28;20040;-75
2021/10/01 01:25:31;;;;;;;7.13;1.65;;;;;;;16.15;58.03;101632.75;10501155;28;20510;-76
2021/10/01 01:30:49;;;;;;;2.75;1.73;;;;;;;15.86;55.21;101571.25;10501515;28;20043;-76
2021/10/01 01:35:56;;;;;;;3.75;2.70;;;;;;;16.10;56.55;101586.09;10484208;28;20043;-77
2021/10/01 01:40:57;;;;;;;2.58;1.65;;;;;;;16.23;56.88;101614.19;10466504;28;20039;-76
2021/10/01 01:45:58;;;;;;;4.47;1.42;;;;;;;15.89;56.31;101587.22;10465571;28;20050;-76
2021/10/01 01:50:58;;;;;;;5.80;2.63;;;;;;;15.27;56.89;101447.56;10482555;28;20024;-76
2021/10/01 01:55:59;;;;;;;1.63;1.30;;;;;;;15.21;56.20;101449.25;10481451;28;20063;-76
2021/10/01 02:00:59;;;;;;;7.10;2.20;;;;;;;16.09;57.36;101584.44;10466183;28;20029;-76
2021/10/01 02:06:00;;;;;;;1.85;1.33;;;;;;;15.90;57.49;101608.03;10499171;28;20028;-76
2021/10/01 02:11:00;;;;;;;5.95;2.00;;;;;;;14.89;57.19;101415.56;10498457;28;20518;-76
2021/10/01 02:16:01;;;;;;;9.77;2.33;;;;;;;15.99;56.97;101602.13;10464930;28;20036;-76
2021/10/01 02:21:01;;;;;;;4.50;2.08;;;;;;;15.95;57.67;101564.50;10480936;28;20032;-76
2021/10/01 02:31:41;;;;;;;2.47;1.38;;;;;;;16.26;56.89;101534.50;10497971;28;20033;-76
2021/10/01 02:36:41;;;;;;;6.97;1.73;;;;;;;16.32;56.24;101523.75;10481342;28;20039;-76
2021/10/01 02:41:42;;;;;;;7.90;1.88;;;;;;;15.94;57.70;101470.78;10481374;28;20060;-76
2021/10/01 02:46:42;;;;;;;3.67;2.08;;;;;;;16.17;58.33;101497.53;10480444;28;20039;-76
2021/10/01 02:51:48;;;;;;;6.95;2.92;;;;;;;15.99;57.23;101484.66;10497803;28;20041;-76
2021/10/01 02:56:52;;;;;;;5.87;1.63;;;;;;;15.96;57.11;101473.31;10481406;28;20025;-75
2021/10/01 03:01:52;;;;;;;6.63;1.60;;;;;;;15.73;57.59;101480.16;10480921;28;20473;-76
2021/10/01 03:06:54;;;;;;;7.07;2.08;;;;;;;14.50;57.83;101288.38;10480873;28;20032;-76
2021/10/01 03:11:56;;;;;;;5.18;1.70;;;;;;;15.76;56.98;101496.13;10465270;28;20052;-76
2021/10/01 03:16:56;;;;;;;1.77;1.45;;;;;;;15.31;57.61;101448.78;10480362;28;20039;-76
2021/10/01 03:21:56;;;;;;;2.50;2.28;;;;;;;14.40;57.70;101283.34;10464467;28;20456;-76
2021/10/01 03:26:57;;;;;;;5.85;2.70;;;;;;;13.09;59.03;101111.81;10489631;28;20059;-76
2021/10/01 03:31:57;;;;;;;5.90;2.15;;;;;;;15.11;58.67;101405.22;10489169;28;20052;-76
2021/10/01 03:36:58;;;;;;;1.63;1.52;;;;;;;15.29;59.35;101431.81;10506824;28;20565;-76
2021/10/01 03:41:58;;;;;;;7.85;2.60;;;;;;;15.17;59.05;101437.09;10471634;28;20139;-76
2021/10/01 03:46:59;;;;;;;11.70;2.17;;;;;;;14.84;59.38;101360.84;10505670;28;20040;-76
2021/10/01 03:51:59;;;;;;;7.88;2.30;;;;;;;15.01;58.99;101432.13;10504803;28;20091;-76
2021/10/01 03:56:59;;;;;;;2.67;2.08;;;;;;;14.52;59.56;101395.31;10505207;28;20040;-76
2021/10/01 04:02:00;;;;;;;2.28;2.08;;;;;;;14.54;59.51;101402.19;10504447;28;20059;-77
2021/10/01 04:07:01;;;;;;;5.22;2.20;;;;;;;14.76;59.38;101413.72;10486604;28;20028;-76
2021/10/01 04:12:02;;;;;;;5.95;2.35;;;;;;;13.78;59.52;101225.63;10504400;28;20029;-76
2021/10/01 04:17:02;;;;;;;2.08;1.20;;;;;;;15.08;60.28;101420.13;10469638;28;20094;-76
2021/10/01 04:22:03;;;;;;;10.65;2.00;;;;;;;13.71;59.27;101203.03;10503285;28;20097;-76
2021/10/01 04:27:04;;;;;;;11.00;2.10;;;;;;;14.66;59.75;101396.97;10485969;28;20037;-76
2021/10/01 04:32:06;;;;;;;6.30;1.83;;;;;;;14.58;59.80;101383.53;10485241;28;20123;-74
2021/10/01 04:37:07;;;;;;;5.82;2.35;;;;;;;14.86;59.04;101384.09;10502156;28;20097;-75
2021/10/01 04:42:07;;;;;;;7.53;2.85;;;;;;;14.52;61.09;101407.03;10484600;28;20109;-76
2021/10/01 04:47:08;;;;;;;4.93;1.77;;;;;;;14.59;59.59;101399.69;10503054;28;20488;-75
2021/10/01 04:52:08;;;;;;;5.32;2.67;;;;;;;14.59;60.77;101398.84;10502522;28;20074;-78
2021/10/01 04:57:09;;;;;;;3.75;1.60;;;;;;;14.63;61.57;101409.13;10454535;28;20139;-76
2021/10/01 05:02:09;;;;;;;4.55;2.03;;;;;;;14.53;60.25;101391.53;10484395;28;20074;-76
2021/10/01 05:07:09;;;;;;;8.25;2.28;;;;;;;14.36;60.10;101356.50;10501693;28;20033;-76
2021/10/01 05:12:10;;;;;;;4.55;1.85;;;;;;;14.87;60.16;101401.31;10501591;28;20115;-75
2021/10/01 05:17:10;;;;;;;3.42;2.47;;;;;;;14.39;59.56;101303.50;10483937;28;20094;-76
2021/10/01 05:22:11;;;;;;;3.50;2.25;;;;;;;14.86;60.30;101405.09;10482192;28;20400;-76
2021/10/01 05:27:11;;;;;;;1.70;1.60;;;;;;;14.63;59.58;101351.88;10501295;28;20426;-76
2021/10/01 05:32:12;;;;;;;7.32;2.30;;;;;;;14.09;59.17;101221.41;10501472;28;20060;-76
2021/10/01 05:37:13;;;;;;;6.13;2.17;;;;;;;15.18;59.10;101388.81;10500985;28;20093;-75
2021/10/01 05:42:13;;;;;;;9.63;2.35;;;;;;;13.71;59.92;101187.53;10465515;28;20127;-75
2021/10/01 05:47:14;;;;;;;3.63;1.83;;;;;;;14.60;59.87;101371.38;10499403;28;20067;-76
2021/10/01 05:57:15;;;;;;;2.55;1.40;;;;;;;14.79;60.49;101382.47;10499512;28;20033;-76
2021/10/01 06:02:17;;;;;;;1.95;1.63;;;;;;;14.48;59.80;101312.25;10481281;28;20102;-76
2021/10/01 06:07:17;;;;;;;4.38;1.70;;;;;;;14.84;60.06;101377.22;10481463;28;20036;-75
2021/10/01 06:12:18;;;;;;;3.63;2.15;;;;;;;14.32;61.69;101360.69;10481132;28;20098;-76
2021/10/01 06:17:18;;;;;;;5.45;2.10;;;;;;;14.95;60.60;101365.63;10481360;28;20048;-77
2021/10/01 06:22:19;;;;;;;7.03;2.08;;;;;;;15.33;59.70;101365.66;10480963;28;20063;-76
2021/10/01 06:27:19;;;;;;;2.42;2.22;;;;;;;15.08;59.39;101356.56;10499007;28;20035;-76
2021/10/01 06:32:19;;;;;;;10.63;2.42;;;;;;;14.93;59.39;101355.97;10481422;28;20139;-75
2021/10/01 06:37:20;;;;;;;3.35;2.53;;;;;;;12.61;60.17;101036.72;10498907;28;20492;-76
2021/10/01 06:42:20;;;;;;;21.60;4.05;;;;;;;15.02;59.93;101360.16;10498104;28;20488;-75
2021/10/01 08:23:06;;;;;;;3.33;1.67;;;;;;;16.46;57.50;101337.56;10503568;28;20042;-76
2021/10/01 08:28:14;;;;;;;4.55;1.90;;;;;;;16.98;57.24;101344.59;10486485;28;20032;-76
2021/10/01 08:33:14;;;;;;;1.52;1.48;;;;;;;17.16;56.22;101331.69;10505960;28;20024;-76
2021/10/01 08:38:15;;;;;;;3.03;1.88;;;;;;;17.51;55.61;101336.47;10484754;28;20052;-75
2021/10/01 08:43:15;;;;;;;1.45;1.27;;;;;;;17.36;55.70;101237.53;10502736;28;20080;-76
2021/10/01 08:48:15;;;;;;;3.90;1.75;;;;;;;15.39;55.15;100901.97;10503330;28;20391;-76
2021/10/01 08:53:16;;;;;;;3.47;2.58;;;;;;;17.85;54.73;101293.00;10451372;28;20128;-76
2021/10/01 08:58:20;;;;;;;2.83;2.22;;;;;;;17.49;54.07;101253.75;10469510;28;20487;-76
2021/10/01 09:03:20;;;;;;;4.70;2.25;;;;;;;18.31;54.91;101325.13;10484294;28;20037;-75
2021/10/01 09:08:23;;;;;;;4.40;2.22;;;;;;;17.70;54.03;101199.47;10502686;28;20072;-76
2021/10/01 09:13:23;;;;;;;4.90;1.80;;;;;;;18.17;54.81;101312.69;10483869;28;20048;-76
2021/10/01 09:18:28;;;;;;;2.63;2.05;;;;;;;17.33;54.58;101158.63;10501007;28;20069;-76
2021/10/01 09:23:28;;;;;;;4.25;2.00;;;;;;;17.53;53.93;101197.44;10482144;28;20047;-75
2021/10/01 09:28:29;;;;;;;4.53;2.17;;;;;;;17.81;55.41;101295.41;10501282;28;20032;-76
2021/10/01 09:33:29;;;;;;;6.72;2.63;;;;;;;17.62;55.18;101258.19;10466578;28;20047;-76
2021/10/01 09:38:36;;;;;;;1.60;1.27;;;;;;;17.24;56.88;101299.63;10500511;28;20041;-76
2021/10/01 09:43:36;;;;;;;3.95;1.85;;;;;;;17.21;56.81;101284.50;10480325;28;20130;-76
2021/10/01 09:48:39;;;;;;;6.32;2.08;;;;;;;17.35;57.72;101301.53;10500599;28;20484;-76
2021/10/01 09:53:46;;;;;;;8.45;2.25;;;;;;;17.47;57.11;101266.00;10499534;28;20028;-77
2021/10/01 09:59:01;;;;;;;;;;;;;;;17.69;58.68;101294.50;10500476;28;20052;-75
2021/10/01 10:04:15;;;;;;;1.63;1.52;;;;;;;17.33;58.96;101353.81;10498059;28;19916;-76
2021/10/01 10:09:15;;;;;;;5.00;2.35;;;;;;;17.20;59.87;101310.19;10481317;28;20028;-76
2021/10/01 10:14:15;;;;;;;2.97;1.80;;;;;;;17.15;60.00;101310.03;10464357;28;20468;-76
2021/10/01 10:19:20;;;;;;;1.92;1.83;;;;;;;16.95;60.75;101293.91;10499580;28;20071;-76
2021/10/01 10:24:20;;;;;;;4.00;1.45;;;;;;;16.99;60.52;101294.25;10498926;28;20535;-76
2021/10/01 10:29:21;;;;;;;3.97;2.30;;;;;;;16.89;60.45;101303.84;10482737;28;20033;-76
2021/10/01 10:34:27;;;;;;;3.05;2.25;;;;;;;16.15;63.13;101293.94;10480563;28;20048;-76
2021/10/01 10:39:33;;;;;;;2.23;2.03;;;;;;;15.52;66.60;101317.50;10498562;28;20028;-76
2021/10/01 10:44:53;;;;;;;7.83;2.20;;;;;;;14.69;66.50;101098.56;10498610;28;20052;-76
2021/10/01 10:49:57;;;;;;;3.22;1.85;;;;;;;15.76;66.44;101282.28;10480454;28;20323;-76
2021/10/01 10:55:10;;;;;;;3.55;2.05;;;;;;;14.03;66.32;100979.91;10463318;28;20032;-75
2021/10/01 11:00:31;;;;;;;4.80;1.42;;;;;;;15.50;67.64;101264.16;10480467;28;20028;-75
2021/10/01 11:05:31;;;;;;;5.63;1.88;;;;;;;16.00;67.03;101258.75;10480372;28;20561;-76
2021/10/01 11:10:39;;;;;;;9.27;2.50;;;;;;;14.98;67.10;101108.84;10498472;28;20178;-74
2021/10/01 11:15:40;;;;;;;4.20;3.03;;;;;;;15.90;67.78;101262.00;10463810;28;20511;-75
2021/10/01 11:20:40;;;;;;;5.63;3.40;;;;;;;16.19;66.42;101219.47;10480134;28;20056;-75
2021/10/01 11:25:42;;;;;;;8.10;2.65;;;;;;;16.53;66.78;101282.81;10478808;28;20484;-75
2021/10/01 11:30:52;;;;;;;2.65;2.10;;;;;;;15.73;66.15;101086.97;10463505;28;20490;-75
2021/10/01 11:35:55;;;;;;;5.15;2.67;;;;;;;15.84;67.48;101163.75;10463160;28;20029;-75
2021/10/01 11:41:12;;;;;;;2.47;2.20;;;;;;;16.90;66.55;101239.84;10479488;28;20033;-74
2021/10/01 11:46:15;;;;;;;4.45;2.83;;;;;;;17.10;65.33;101236.88;10485714;28;20036;-75
2021/10/01 11:51:16;;;;;;;5.55;2.15;;;;;;;17.33;63.95;101169.56;10488018;28;20044;-75
2021/10/01 11:56:16;;;;;;;1.92;1.83;;;;;;;17.57;64.19;101236.13;10486005;28;20049;-76
2021/10/01 12:01:17;;;;;;;11.40;2.22;;;;;;;18.00;64.08;101238.59;10469880;28;20032;-76
2021/10/01 12:06:24;;;;;;;2.38;1.40;;;;;;;18.20;63.06;101204.50;10486184;28;20114;-76
2021/10/01 12:11:29;;;;;;;4.47;2.22;;;;;;;18.42;61.95;101227.44;10503776;28;20473;-76
2021/10/01 12:16:29;;;;;;;8.80;2.22;;;;;;;18.64;60.11;101213.09;10504090;28;20028;-76
2021/10/01 12:21:30;;;;;;;9.95;2.63;;;;;;;18.40;61.55;101217.78;10485835;28;20036;-76
2021/10/01 12:26:37;;;;;;;5.80;2.92;;;;;;;17.79;61.70;101155.09;10485356;28;20040;-75
2021/10/01 12:31:41;;;;;;;3.10;2.55;;;;;;;17.47;61.25;101088.88;10468960;28;20486;-76
2021/10/01 12:36:43;;;;;;;2.20;1.90;;;;;;;17.60;62.85;101181.72;10503249;28;20097;-76
2021/10/01 12:41:43;;;;;;;6.97;3.30;;;;;;;18.12;62.82;101225.72;10468449;28;20515;-76
2021/10/01 12:46:46;;;;;;;5.30;2.53;;;;;;;17.89;63.24;101217.50;10503112;28;20090;-76
2021/10/01 12:52:10;;;;;;;12.80;3.10;;;;;;;17.53;64.23;101240.41;10503067;28;20036;-76
2021/10/01 12:57:21;;;;;;;4.40;2.40;;;;;;;17.27;64.68;101228.81;10501350;28;20029;-76
2021/10/01 13:02:27;;;;;;;9.98;2.45;;;;;;;17.20;65.07;101222.63;10502456;28;20036;-75
2021/10/01 13:07:31;;;;;;;9.63;2.47;;;;;;;16.87;66.67;101237.59;10501756;28;20044;-74
2021/10/01 13:12:33;;;;;;;4.20;2.45;;;;;;;16.02;70.64;101219.22;10484074;28;20189;-74
2021/10/01 13:17:33;;;;;;;4.80;2.35;;;;;;;15.97;70.42;101169.88;10500897;28;20058;-74
2021/10/01 13:22:57;;;;;;;11.05;4.57;;;;;;;16.19;71.07;101215.91;10481987;28;20036;-74
2021/10/01 13:27:58;;;;;;;3.47;2.53;;;;;;;14.73;72.59;100996.22;10482739;28;20044;-74
2021/10/01 13:32:59;;;;;;;3.13;2.83;;;;;;;16.22;71.33;101188.13;10449118;28;20032;-74
2021/10/01 13:38:04;;;;;;;3.53;2.85;;;;;;;16.19;70.85;101166.72;10482273;28;20033;-74
2021/10/01 13:43:05;;;;;;;5.35;2.13;;;;;;;16.60;70.17;101195.22;10499897;28;20044;-74
2021/10/01 13:48:06;;;;;;;2.75;2.10;;;;;;;16.51;70.58;101192.81;10465796;28;20033;-74
2021/10/01 13:53:06;;;;;;;5.25;2.70;;;;;;;15.95;72.51;101176.63;10499663;28;20033;-75
2021/10/01 13:58:10;;;;;;;3.40;2.53;;;;;;;16.05;72.44;101163.31;10500212;28;20036;-75
2021/10/01 14:03:13;;;;;;;5.43;3.05;;;;;;;16.01;72.66;101176.56;10500538;28;20043;-76
2021/10/01 14:08:15;;;;;;;8.15;3.08;;;;;;;16.18;72.30;101181.44;10481469;28;20039;-76
2021/10/01 14:13:15;;;;;;;4.97;3.10;;;;;;;16.02;73.75;101172.78;10500364;28;20071;-76
2021/10/01 14:18:39;;;;;;;6.68;2.30;;;;;;;16.21;72.51;101167.34;10500413;28;20063;-76
2021/10/01 14:23:39;;;;;;;3.40;2.80;;;;;;;16.33;71.98;101156.44;10498782;28;20055;-77
2021/10/01 14:28:40;;;;;;;2.83;2.58;;;;;;;16.33;72.08;101165.47;10499502;28;20408;-77
2021/10/01 14:33:40;;;;;;;6.25;2.38;;;;;;;15.87;74.28;101155.09;10500403;28;20036;-76
2021/10/01 14:38:41;;;;;;;7.43;3.08;;;;;;;15.71;74.88;101154.63;10481824;28;20044;-77
2021/10/01 14:43:42;;;;;;;4.72;3.53;;;;;;;15.72;74.66;101163.66;10498754;28;20052;-75
2021/10/01 14:48:42;;;;;;;7.47;3.83;;;;;;;15.79;74.24;101158.94;10498720;28;20472;-77
2021/10/01 14:53:43;;;;;;;4.50;2.70;;;;;;;15.39;74.78;101101.16;10497859;28;20477;-77
2021/10/01 14:58:43;;;;;;;4.97;2.72;;;;;;;15.71;75.08;101164.72;10447533;28;20055;-77
2021/10/01 15:03:44;;;;;;;3.92;2.78;;;;;;;15.69;75.40;101178.56;10498594;28;20033;-77
2021/10/01 15:08:44;;;;;;;4.97;3.45;;;;;;;15.56;76.02;101135.81;10480111;28;20388;-76
2021/10/01 15:13:45;;;;;;;4.60;2.83;;;;;;;15.26;76.69;101124.78;10497983;28;20170;-77
2021/10/01 15:18:48;;;;;;;13.23;3.63;;;;;;;15.67;75.51;101145.22;10501010;28;20043;-77
2021/10/01 15:23:48;;;;;;;2.97;2.40;;;;;;;15.61;75.79;101137.91;10488795;28;20029;-77
2021/10/01 15:28:49;;;;;;;8.00;3.05;;;;;;;15.92;74.30;101161.56;10506634;28;20040;-78
2021/10/01 15:33:52;;;;;;;3.53;2.67;;;;;;;15.37;74.30;101040.50;10507260;28;20028;-78
2021/10/01 15:38:53;;;;;;;11.95;2.90;;;;;;;15.69;75.87;101139.53;10472523;28;20430;-78
2021/10/01 15:43:54;;;;;;;8.73;3.30;;;;;;;15.95;74.42;101128.34;10502923;28;20048;-78
2021/10/01 15:48:54;;;;;;;2.38;2.22;;;;;;;15.91;74.59;101129.81;10506047;28;20041;-77
2021/10/01 15:53:55;;;;;;;4.95;3.25;;;;;;;15.66;75.67;101134.47;10503367;28;20115;-79
2021/10/01 15:58:56;;;;;;;10.18;3.40;;;;;;;15.85;74.97;101135.38;10486109;28;20109;-78
2021/10/01 16:03:56;;;;;;;3.17;2.85;;;;;;;15.60;75.54;101117.09;10503663;28;20035;-77
2021/10/01 16:08:57;;;;;;;3.03;2.72;;;;;;;15.12;75.02;101016.81;10468875;28;20111;-77
2021/10/01 16:13:58;;;;;;;5.82;3.17;;;;;;;15.72;75.94;101133.59;10485560;28;20395;-77
2021/10/01 16:18:58;;;;;;;7.78;4.53;;;;;;;15.77;75.53;101134.59;10485201;28;20028;-78
2021/10/01 16:23:59;;;;;;;3.35;2.90;;;;;;;15.90;75.21;101144.56;10502543;28;20028;-78
2021/10/01 16:29:00;;;;;;;6.25;2.85;;;;;;;15.15;75.10;101012.81;10485840;28;20043;-79
2021/10/01 16:34:01;;;;;;;6.47;3.97;;;;;;;16.02;74.44;101134.53;10485182;28;20036;-79
2021/10/01 16:39:02;;;;;;;3.20;3.00;;;;;;;15.89;75.25;101128.38;10485017;28;20028;-78
2021/10/01 16:44:06;;;;;;;6.63;4.85;;;;;;;15.74;76.65;101112.38;10484296;28;20045;-79
2021/10/01 16:49:06;;;;;;;8.48;4.82;;;;;;;16.07;74.81;101133.03;10502261;28;20115;-79
2021/10/01 16:54:06;;;;;;;6.10;3.97;;;;;;;16.19;74.65;101123.00;10501435;28;20028;-79
2021/10/01 16:59:07;;;;;;;3.97;3.67;;;;;;;15.64;75.33;101060.19;10483670;28;20045;-80
2021/10/01 17:04:07;;;;;;;9.55;5.25;;;;;;;15.86;76.25;101118.78;10469855;28;20032;-80
2021/10/01 17:09:08;;;;;;;5.30;4.75;;;;;;;16.23;74.74;101125.03;10487280;28;20087;-80
2021/10/01 17:14:08;;;;;;;7.25;5.03;;;;;;;16.16;75.04;101098.88;10487757;28;20097;-80
2021/10/01 17:19:09;;;;;;;8.60;4.55;;;;;;;16.32;74.96;101117.34;10503565;28;20037;-81
2021/10/01 17:24:09;;;;;;;6.55;5.45;;;;;;;16.52;73.99;101109.72;10482839;28;20043;-80
2021/10/01 17:29:10;;;;;;;12.18;5.93;;;;;;;16.47;74.22;101111.50;10483581;28;20036;-80
2021/10/01 17:34:10;;;;;;;3.90;3.50;;;;;;;16.21;74.38;101071.69;10500798;28;20035;-81
2021/10/01 17:39:11;;;;;;;4.90;4.30;;;;;;;15.82;74.90;101046.53;10482827;28;20447;-81
2021/10/01 17:44:11;;;;;;;9.25;5.65;;;;;;;16.26;73.83;101074.56;10481924;28;20166;-81
2021/10/01 17:49:12;;;;;;;10.52;6.15;;;;;;;16.51;73.78;101099.03;10500299;28;20033;-81
2021/10/01 17:54:14;;;;;;;5.72;5.20;;;;;;;16.61;73.31;101093.81;10499586;28;20090;-81
2021/10/01 17:59:14;;;;;;;5.28;4.78;;;;;;;16.78;73.64;101115.06;10500013;28;20464;-81
2021/10/01 18:04:16;;;;;;;6.57;5.95;;;;;;;16.56;73.18;101084.66;10481928;28;20106;-80
2021/10/01 18:09:16;;;;;;;6.82;6.13;;;;;;;16.67;73.40;101122.13;10482721;28;20127;-82
2021/10/01 18:14:17;;;;;;;13.60;8.00;;;;;;;16.64;73.72;101117.13;10499367;28;20039;-81
2021/10/01 18:19:18;;;;;;;7.60;6.88;;;;;;;16.72;73.53;101105.88;10499088;28;20036;-81
2021/10/01 18:24:19;;;;;;;8.82;7.88;;;;;;;16.52;74.04;101115.19;10499059;28;20032;-82
2021/10/01 18:29:20;;;;;;;10.27;6.65;;;;;;;16.50;74.38;101109.13;10481993;28;20033;-81
2021/10/01 18:34:20;;;;;;;12.55;9.35;;;;;;;16.36;74.75;101110.34;10483049;28;20054;-79
2021/10/01 18:39:20;;;;;;;15.35;8.88;;;;;;;16.55;74.08;101113.88;10499094;28;20107;-81
2021/10/01 18:44:21;;;;;;;8.13;7.43;;;;;;;16.73;73.00;101113.00;10500321;28;20595;-81
2021/10/01 18:49:21;;;;;;;10.43;7.35;;;;;;;16.28;75.12;101113.44;10480759;28;20058;-80
2021/10/01 18:54:23;;;;;;;10.65;9.50;;;;;;;16.20;74.14;101042.69;10499057;28;20059;-81
2021/10/01 18:59:27;;;;;;;13.38;9.75;;;;;;;16.61;74.13;101098.47;10468137;28;20048;-81
2021/10/01 19:04:27;;;;;;;9.57;8.40;;;;;;;16.14;73.15;100997.16;10503532;28;20092;-79
2021/10/01 19:09:28;;;;;;;9.48;8.48;;;;;;;16.62;72.93;101070.03;10483140;28;20112;-80
2021/10/01 19:14:28;;;;;;;11.77;8.63;;;;;;;16.74;73.03;101098.25;10501296;28;20493;-81
2021/10/01 19:19:29;;;;;;;10.52;9.30;;;;;;;16.48;73.17;101067.50;10502738;28;20119;-80
2021/10/01 19:24:40;;;;;;;13.40;8.93;;;;;;;16.23;72.18;100998.50;10468619;28;20365;-80
2021/10/01 19:35:00;;;;;;;11.80;9.82;;;;;;;16.37;73.86;101106.59;10488821;28;20036;-80
2021/10/01 19:40:04;;;;;;;11.52;8.93;;;;;;;16.64;73.08;101117.13;10504333;28;20408;-80
2021/10/01 19:45:06;;;;;;;10.82;7.80;;;;;;;16.92;71.75;101120.09;10505901;28;20078;-81
2021/10/01 19:50:12;;;;;;;9.48;8.57;;;;;;;16.26;72.01;101042.59;10487419;28;20032;-80
2021/10/01 19:55:13;;;;;;;9.50;8.60;;;;;;;16.85;72.10;101133.06;10487167;28;20090;-80
2021/10/01 20:00:17;;;;;;;10.13;8.05;;;;;;;16.35;72.52;101048.56;10505558;28;20463;-80
2021/10/01 20:05:21;;;;;;;12.55;8.43;;;;;;;16.61;72.51;101093.81;10490328;28;20032;-80
2021/10/01 20:10:21;;;;;;;7.88;7.18;;;;;;;16.88;71.96;101140.81;10493537;28;20106;-80
2021/10/01 20:15:23;;;;;;;10.88;6.45;;;;;;;16.75;72.34;101143.72;10476724;28;20028;-80
2021/10/01 20:20:47;;;;;;;13.05;7.35;;;;;;;16.48;73.35;101110.41;10510242;28;20495;-80
2021/10/01 20:51:49;;;;;;;11.35;8.85;;;;;;;16.88;71.91;101154.47;10503094;28;20460;-80
2021/10/01 20:57:03;;;;;;;12.20;9.27;;;;;;;16.76;71.34;101118.03;10484665;28;20105;-79
2021/10/01 21:44:40;;;;;;;5.53;5.03;;;;;;;16.59;70.56;101158.00;10487006;28;20049;-80
2021/10/01 21:49:41;;;;;;;5.65;5.15;;;;;;;16.15;71.17;101135.47;10502785;28;20384;-79
2021/10/01 21:54:41;;;;;;;6.50;5.72;;;;;;;16.07;71.33;101155.69;10484930;28;20047;-79
2021/10/01 21:59:42;;;;;;;12.98;6.63;;;;;;;15.98;71.24;101157.06;10509409;28;20161;-80
2021/10/01 22:10:21;;;;;;;5.32;4.85;;;;;;;15.99;70.42;101150.56;10501567;28;20029;-80
2021/10/01 22:20:43;;;;;;;14.40;6.50;;;;;;;15.58;72.22;101149.25;10501163;28;20036;-80
2021/10/01 22:25:44;;;;;;;18.65;8.73;;;;;;;15.72;71.30;101150.00;10500889;28;20111;-80
2021/10/01 22:30:45;;;;;;;10.40;7.03;;;;;;;15.42;71.31;101117.09;10500098;28;20510;-80
2021/10/01 22:35:45;;;;;;;9.27;6.80;;;;;;;15.68;71.34;101151.50;10500686;28;20039;-80
2021/10/01 22:40:47;;;;;;;17.52;9.38;;;;;;;15.67;70.92;101161.59;10465764;28;20476;-80
2021/10/01 22:45:49;;;;;;;13.38;9.27;;;;;;;15.71;71.06;101164.72;10483700;28;20049;-80
2021/10/01 22:50:51;;;;;;;21.35;10.57;;;;;;;15.37;70.94;101139.56;10483738;28;20088;-80
2021/10/01 22:55:56;;;;;;;16.27;9.55;;;;;;;15.65;70.81;101168.31;10481227;28;20457;-80
2021/10/01 23:00:58;;;;;;;14.45;9.57;;;;;;;15.66;70.79;101172.69;10481079;28;20043;-79
2021/10/01 23:05:59;;;;;;;13.63;10.63;;;;;;;15.73;70.96;101168.03;10500290;28;20131;-80
2021/10/01 23:11:07;;;;;;;17.98;11.40;;;;;;;14.94;71.45;101039.44;10482537;28;20123;-79
